Aktuální počasí v Česku a ve světě - METAR

Seznam meteostanic umístěných nejčasteji na letišti v ČR a ve světě

Vyhledat místa podle abecedy:
A B C D E F G H I J K L M N O P Q R S T U V W X Y Z

Filtrovat:

ID stanice:
a/nebo
Název místa (fulltext):
 
Místo (ID)Naposledy načteno 
Temelín (Temelin) 14.08.2020 14:00 UTC Zobrazit data
Místo: Temelín
Teplota: 22 °C (pocitová: 22 °C)
Vítr: 3 m/s z(e) 240°
Počasí: zataženo
Dohlednost: 30 km
Zákl. oblačnosti: 3/8 780 m;5/8 3000 m
Vlhkost: 73%
Tahiti (NTAA) 14.08.2020 14:00 UTC Zobrazit METAR
NTAA 141400Z VRB03KT 9999 FEW020 BKN043 24/21 Q1013 WS ALL RWY NOSIG
Taipei (RCTP) 14.08.2020 14:00 UTC Zobrazit METAR
RCTP 141400Z 16005KT 130V190 9999 FEW015 SCT180 28/26 Q1010 NOSIG RMK A2983
Taipei (RCSS) 14.08.2020 14:00 UTC Zobrazit METAR
RCSS 141400Z 09006KT 9999 FEW020 SCT180 27/25 Q1010 NOSIG RMK A2983
Tallinn (EETN) 14.08.2020 13:50 UTC Zobrazit METAR
EETN 141350Z 34006KT 300V020 9999 FEW033 20/14 Q1015 NOSIG
Tampere (EFTP) 14.08.2020 13:50 UTC Zobrazit METAR
EFTP 141350Z AUTO 24008KT 9999 OVC037 20/12 Q1014
Tarawa I (NGTA) 14.08.2020 14:00 UTC Zobrazit METAR
NGTA 141400Z 15003KT 9999 FEW020 28/22 Q1009
Targu Mures (LRTM) 14.08.2020 12:00 UTC Zobrazit METAR
LRTM 141200Z 20006KT 150V290 9999 FEW042 30/09 Q1014
Tartu (EETU) 14.08.2020 13:50 UTC Zobrazit METAR
EETU 141350Z 23008KT 9999 SCT044 23/13 Q1015
Tashkent (UTTT) 14.08.2020 14:00 UTC Zobrazit METAR
UTTT 141400Z 33006KT CAVOK 33/M01 Q1006 R08R/CLRD70 NOSIG
Tbilisi (UGGG) Zatím nenačteno  
Tegucigalpa (MHTG) 14.08.2020 14:00 UTC Zobrazit METAR
MHTG 141400Z 36012KT 8000 FEW008 BKN026 22/19 Q1019 A3009
Tehran (OIII) 14.08.2020 14:00 UTC Zobrazit METAR
OIII 141400Z 15006KT CAVOK 37/03 Q1003 A2963 NOSIG
Tel Aviv (LLBG) 14.08.2020 13:50 UTC Zobrazit METAR
LLBG 141350Z 30009KT 270V330 9999 FEW022 31/22 Q1004 NOSIG
Tenerife (GCTS) 14.08.2020 14:00 UTC Zobrazit METAR
GCTS 141400Z 09023KT 9999 FEW025 27/17 Q1018 NOSIG
Thessaloniki (LGTS) 14.08.2020 13:50 UTC Zobrazit METAR
LGTS 141350Z 18010KT 9999 FEW025 31/20 Q1012 NOSIG
Thule (BGTL) 14.08.2020 13:56 UTC Zobrazit METAR
BGTL 141356Z AUTO 32004KT 9999 FEW032 OVC055 07/04 A2994 RMK AO2 SLP122 T00740042 TSNO $
Timisoara (LRTR) 14.08.2020 07:00 UTC Zobrazit METAR
LRTR 140700Z 10009KT CAVOK 23/16 Q1014
Tirana (LATI) 14.08.2020 13:50 UTC Zobrazit METAR
LATI 141350Z 34006KT 310V010 CAVOK 35/21 Q1011 NOSIG
Tokyo (RJTT) 14.08.2020 14:00 UTC Zobrazit METAR
RJTT 141400Z 18011KT 9999 FEW007 28/27 Q1008 NOSIG
Torp (ENTO) 14.08.2020 13:50 UTC Zobrazit METAR
ENTO 141350Z 17008KT 140V210 CAVOK 22/17 Q1013 NOSIG
Toulouse (LFBO) 14.08.2020 14:00 UTC Zobrazit METAR
LFBO 141400Z AUTO 34008KT 300V030 CAVOK 28/15 Q1016 NOSIG
Tripoli (HLLT) 13.07.2014 03:50 UTC Zobrazit METAR
HLLT 130350Z 11009KT CAVOK 24/15 Q1015
Trondheim (ENVA) 14.08.2020 13:50 UTC Zobrazit METAR
ENVA 141350Z 25008KT 9999 FEW030 20/13 Q1014 NOSIG RMK WIND 670FT 30008KT
Tunis (DTTA) 14.08.2020 14:00 UTC Zobrazit METAR
DTTA 141400Z 03008KT 350V070 9999 FEW030 42/01 Q1011
Turku (EFTU) 14.08.2020 13:50 UTC Zobrazit METAR
EFTU 141350Z AUTO 22008KT 9999 FEW045 21/12 Q1014
Reklama

Počasí na Váš email

Emaily jsou bez reklamy a bez spamu



Odhlásit newsletter




Další české internetové stránky (nejen) o počasí najdete v katalogu TOPlist - weby o počasí nebo vyhledejte na internetu, co jste tu na 🌞 Slunečnu ⛅ zatím nenašli:
⭐ Přidat Slunečno.cz do oblíbených | 🏠 Nastavit Slunečno.cz jako HOMEPAGE

⬆️ Posunout stránku nahoru ⬆️
Reklama